Latest Weather Observations for Samuel Hill

IDQ60801

Issued at 1:32 pm EST Friday 6 May 2016 (issued every 30 minutes, with the page automatically refreshed every 10 minutes)

About weather observations | Map of weather stations | Latest weather observations for QLD | Other Formats
Station Details ID: 033308 Name: SAMUEL HILL AERO Lat: -22.74 Lon: 150.66 Height: 31.0 m
Data from the previous 72 hours. | See also: Recent months at Samuel Hill
Date/Time
EST
Temp
°C
App
Temp
°C
Dew
Point
Rel
Hum
%
Delta-T
°C
Wind Press
QNH
hPa
Press
MSL
hPa
Rain
since 9 am
mm
Dir
 
Spd
km/h
Gust
km/h
Spd
kts
Gust
kts
06/01:30pm 25.5 25.9 18.9 67 4.2 SE 15 20 8 11 1016.1 1016.0 0.0
06/01:00pm 26.0 26.0 18.2 62 4.9 ESE 15 28 8 15 1016.2 1016.1 0.0
06/12:30pm 26.6 27.2 18.5 61 5.2 ESE 13 20 7 11 1016.5 1016.4 0.0
06/12:00pm 25.6 25.6 17.3 60 5.2 E 13 24 7 13 1017.1 1017.0 0.0
06/11:30am 26.1 25.7 17.2 58 5.6 SE 15 26 8 14 1017.5 1017.4 0.0
06/11:00am 25.5 25.6 17.4 61 5.1 ESE 13 22 7 12 1017.8 1017.7 0.0
06/10:30am 26.0 25.0 17.6 60 5.3 SE 19 28 10 15 1018.0 1017.9 0.0
06/10:00am 26.3 25.7 17.6 58 5.5 SE 17 28 9 15 1018.4 1018.3 0.0
06/09:30am 25.3 25.0 18.2 64 4.5 ESE 17 22 9 12 1018.7 1018.6 0.0
06/09:00am 24.2 26.3 20.1 78 2.7 ESE 9 11 5 6 1018.6 1018.5 0.0
06/08:30am 22.9 25.1 19.7 82 2.1 SE 7 11 4 6 1018.3 1018.2 0.0
06/08:00am 21.3 22.8 19.0 87 1.4 SSE 9 13 5 7 1018.1 1018.0 0.0
06/07:30am 19.5 21.4 18.5 94 0.6 SSE 6 9 3 5 1017.6 1017.5 0.0
06/07:00am 18.0 19.2 17.4 96 0.4 SE 7 9 4 5 1017.3 1017.2 0.0
06/06:30am 16.1 17.8 15.1 94 0.6 CALM 0 0 0 0 1016.9 1016.8 0.0
06/06:00am 15.5 16.9 14.4 93 0.6 CALM 0 0 0 0 1016.7 1016.6 0.0
06/05:30am 16.0 16.9 15.0 94 0.6 SW 4 7 2 4 1016.5 1016.4 0.0
06/05:00am 15.8 17.3 14.7 93 0.6 CALM 0 0 0 0 1016.2 1016.1 0.0
06/04:30am 16.0 17.6 15.0 94 0.6 CALM 0 0 0 0 1016.0 1015.9 0.0
06/04:00am 16.1 17.8 15.1 94 0.6 CALM 0 0 0 0 1015.9 1015.8 0.0
06/03:30am 16.2 17.9 15.1 93 0.6 CALM 0 0 0 0 1016.3 1016.2 0.0
06/03:00am 16.4 18.1 15.3 93 0.6 CALM 0 0 0 0 1016.2 1016.1 0.0
06/02:30am 16.5 18.3 15.4 93 0.6 CALM 0 0 0 0 1016.2 1016.1 0.0
06/02:00am 16.7 18.5 15.6 93 0.6 CALM 0 0 0 0 1016.4 1016.3 0.0
06/01:30am 16.7 18.5 15.6 93 0.6 CALM 0 0 0 0 1016.8 1016.7 0.0
06/01:00am 17.1 19.1 16.0 93 0.6 CALM 0 0 0 0 1016.8 1016.7 0.0
06/12:30am 17.4 19.5 16.3 93 0.7 CALM 0 0 0 0 1017.2 1017.1 0.0
06/12:00am 17.4 19.4 16.1 92 0.8 CALM 0 0 0 0 1017.4 1017.3 0.0
 
Date/Time
EST
Temp
°C
App
Temp
°C
Dew
Point
Rel
Hum
%
Delta-T
°C
Wind Press
QNH
hPa
Press
MSL
hPa
Rain
since 9 am
mm
Dir
 
Spd
km/h
Gust
km/h
Spd
kts
Gust
kts
05/11:30pm 17.7 19.9 16.4 92 0.8 CALM 0 0 0 0 1017.7 1017.6 0.0
05/11:00pm 18.1 20.4 16.8 92 0.8 CALM 0 0 0 0 1017.8 1017.7 0.0
05/10:30pm 18.5 21.0 17.3 93 0.7 CALM 0 0 0 0 1017.9 1017.8 0.0
05/10:00pm 18.3 20.7 17.0 92 0.8 CALM 0 0 0 0 1018.0 1017.9 0.0
05/09:30pm 18.7 21.3 17.4 92 0.8 CALM 0 0 0 0 1018.3 1018.2 0.0
05/09:00pm 19.0 21.5 17.3 90 1.0 CALM 0 0 0 0 1018.0 1017.9 0.0
05/08:30pm 19.8 21.4 17.9 89 1.2 SSE 6 6 3 3 1018.0 1017.9 0.0
05/08:00pm 20.4 22.2 18.3 88 1.3 SE 6 7 3 4 1017.8 1017.7 0.0
05/07:30pm 20.8 22.5 18.6 87 1.4 SSE 7 9 4 5 1017.5 1017.4 0.0
05/07:00pm 21.1 22.9 18.7 86 1.5 SSE 7 9 4 5 1017.3 1017.2 0.0
05/06:30pm 21.7 23.6 18.9 84 1.8 SSE 7 9 4 5 1016.9 1016.8 0.0
05/06:00pm 22.4 23.9 19.0 81 2.2 SE 9 11 5 6 1016.5 1016.4 0.0
05/05:30pm 23.1 24.8 19.3 79 2.4 ESE 9 13 5 7 1016.4 1016.3 0.0
05/05:00pm 23.7 24.1 19.0 75 3.0 ESE 15 22 8 12 1016.2 1016.1 0.0
05/04:30pm 24.5 24.2 19.1 72 3.5 ESE 19 28 10 15 1016.1 1016.0 0.0
05/04:00pm 25.0 24.6 18.9 69 3.9 ESE 19 26 10 14 1015.9 1015.8 0.0
05/03:30pm 25.5 25.2 19.2 68 4.0 ESE 19 28 10 15 1016.0 1015.9 0.0
05/03:00pm 26.0 25.9 19.6 68 4.1 ESE 19 28 10 15 1015.8 1015.7 0.0
05/02:30pm 26.0 25.9 18.7 64 4.7 ESE 17 24 9 13 1015.9 1015.8 0.0
05/02:00pm 26.3 25.7 17.6 58 5.5 ESE 17 26 9 14 1015.9 1015.8 0.0
05/01:30pm 26.5 25.9 17.6 58 5.6 ESE 17 26 9 14 1016.2 1016.1 0.0
05/01:00pm 26.6 26.1 17.7 58 5.6 ESE 17 26 9 14 1016.6 1016.5 0.0
05/12:30pm 26.1 25.8 18.2 61 5.0 SE 17 24 9 13 1016.9 1016.8 0.0
05/12:00pm 26.2 25.7 18.6 63 4.8 ESE 19 28 10 15 1017.5 1017.4 0.0
05/11:30am 26.7 26.4 19.1 63 4.9 SE 19 33 10 18 1018.0 1017.9 0.0
05/11:00am 26.1 26.1 19.0 65 4.5 SE 17 28 9 15 1018.3 1018.2 0.0
05/10:30am 25.2 24.9 19.1 69 3.9 SE 19 26 10 14 1018.7 1018.6 0.0
05/10:00am 24.9 24.8 19.9 74 3.2 ESE 20 30 11 16 1018.8 1018.7 0.0
05/09:30am 24.8 25.3 20.1 75 3.1 SE 17 24 9 13 1018.8 1018.7 0.0
05/09:00am 25.3 26.6 20.8 76 3.0 SE 15 26 8 14 1018.6 1018.5 0.0
05/08:42am 24.8 26.9 21.7 83 2.1 SSE 13 22 7 12 1018.5 1018.4 0.0
05/08:30am 24.3 26.3 21.6 85 1.8 SSE 13 19 7 10 1018.5 1018.4 0.0
05/08:00am 23.1 25.8 21.4 90 1.1 SE 9 13 5 7 1018.1 1018.0 0.0
05/07:30am 22.2 25.3 21.0 93 0.8 SE 6 9 3 5 1017.8 1017.7 0.0
05/07:00am 21.0 24.3 20.0 94 0.6 SE 2 6 1 3 1017.5 1017.4 0.0
05/06:30am 20.3 22.9 19.3 94 0.6 SSE 4 7 2 4 1017.1 1017.0 0.0
05/06:00am 20.4 23.8 19.4 94 0.6 CALM 0 0 0 0 1016.9 1016.8 0.0
05/05:37am 20.8 23.1 19.8 94 0.6 S 7 9 4 5 1016.6 1016.5 0.0
05/05:30am 20.9 23.2 19.9 94 0.6 S 7 9 4 5 1016.6 1016.5 0.0
05/05:06am 21.1 23.6 20.3 95 0.5 SSE 7 7 4 4 1016.4 1016.3 0.0
05/05:00am 20.9 23.4 19.9 94 0.6 SSE 6 7 3 4 1016.3 1016.2 0.0
05/04:30am 20.8 23.7 19.8 94 0.6 SE 4 7 2 4 1015.9 1015.8 0.0
05/04:00am 20.3 23.6 19.1 93 0.8 CALM 0 0 0 0 1015.8 1015.7 0.0
05/03:30am 20.5 23.9 19.3 93 0.8 CALM 0 0 0 0 1015.7 1015.6 0.0
05/03:00am 20.7 23.1 19.7 94 0.6 SE 6 7 3 4 1015.6 1015.5 0.0
05/02:30am 20.8 23.3 19.8 94 0.6 SSE 6 7 3 4 1015.7 1015.6 0.0
05/02:00am 20.8 24.3 19.6 93 0.8 CALM 0 0 0 0 1015.8 1015.7 0.0
05/01:30am 20.9 23.3 19.7 93 0.8 SSE 6 9 3 5 1015.9 1015.8 0.0
05/01:00am 20.8 23.9 19.5 92 0.8 SE 2 6 1 3 1016.2 1016.1 0.0
05/12:30am 20.9 23.3 19.6 92 0.8 SSE 6 7 3 4 1016.5 1016.4 0.0
05/12:00am 21.2 24.8 19.7 91 1.0 CALM 0 0 0 0 1016.5 1016.4 0.0
 
Date/Time
EST
Temp
°C
App
Temp
°C
Dew
Point
Rel
Hum
%
Delta-T
°C
Wind Press
QNH
hPa
Press
MSL
hPa
Rain
since 9 am
mm
Dir
 
Spd
km/h
Gust
km/h
Spd
kts
Gust
kts
04/11:30pm 21.4 25.1 19.9 91 1.0 CALM 0 0 0 0 1016.7 1016.6 0.0
04/11:00pm 21.9 25.7 20.2 90 1.1 CALM 0 0 0 0 1016.9 1016.8 0.0
04/10:30pm 22.1 26.0 20.4 90 1.1 CALM 0 0 0 0 1017.2 1017.1 0.0
04/10:00pm 22.7 26.3 20.6 88 1.4 S 2 6 1 3 1017.4 1017.3 0.0
04/09:30pm 22.6 25.5 20.7 89 1.2 S 6 9 3 5 1017.5 1017.4 0.0
04/09:00pm 22.6 25.5 20.7 89 1.2 SSE 6 7 3 4 1017.3 1017.2 0.0
04/08:30pm 22.7 25.7 20.8 89 1.2 SSE 6 7 3 4 1017.2 1017.1 0.0
04/08:00pm 22.7 25.5 20.8 89 1.2 SSE 7 9 4 5 1017.0 1016.9 0.0
04/07:30pm 22.9 26.0 21.0 89 1.2 S 6 9 3 5 1016.5 1016.4 0.0
04/07:00pm 23.3 27.5 21.0 87 1.5 CALM 0 0 0 0 1016.2 1016.1 0.0
04/06:30pm 23.4 27.7 21.1 87 1.5 CALM 0 6 0 3 1015.7 1015.6 0.0
04/06:00pm 23.6 26.7 21.1 86 1.6 SE 6 7 3 4 1015.4 1015.3 0.0
04/05:30pm 23.8 26.7 21.1 85 1.8 ESE 7 9 4 5 1014.7 1014.6 0.0
04/05:00pm 24.1 26.2 21.0 83 2.0 SE 11 19 6 10 1014.4 1014.3 0.0
04/04:30pm 24.4 26.6 21.1 82 2.2 ESE 11 19 6 10 1014.2 1014.1 0.0
04/04:00pm 24.9 26.5 21.4 81 2.3 SE 15 20 8 11 1013.9 1013.8 0.0
04/03:30pm 25.5 27.1 20.7 75 3.2 ESE 13 19 7 10 1013.6 1013.5 0.0
04/03:00pm 26.5 28.6 21.0 72 3.6 SE 11 17 6 9 1013.3 1013.2 0.0
04/02:30pm 26.9 28.8 21.4 72 3.7 SE 13 19 7 10 1013.3 1013.2 0.0
04/02:00pm 26.9 29.0 21.0 70 3.9 SSW 11 19 6 10 1013.3 1013.2 0.0
04/01:30pm 27.3 29.8 21.1 69 4.1 SSE 9 13 5 7 1013.6 1013.5 0.0
04/01:00pm 26.9 29.7 21.6 72 3.5 WSW 9 11 5 6 1014.0 1013.9 0.0
04/12:30pm 26.7 29.3 21.2 72 3.6 W 9 15 5 8 1014.4 1014.3 0.0
04/12:00pm 27.2 30.1 21.7 72 3.7 WNW 9 13 5 7 1015.0 1014.9 0.0
04/11:30am 26.4 29.1 21.4 74 3.3 WNW 9 13 5 7 1015.2 1015.1 0.0
04/11:00am 26.8 29.7 21.1 71 3.8 WNW 7 11 4 6 1015.6 1015.5 0.0
04/10:30am 26.5 29.6 21.5 74 3.3 WNW 7 11 4 6 1015.9 1015.8 0.0
04/10:00am 26.2 30.2 22.7 81 2.4 NW 6 9 3 5 1016.2 1016.1 0.0
04/09:30am 24.9 29.7 22.2 85 1.8 CALM 0 0 0 0 1016.4 1016.3 0.0
04/09:00am 24.0 28.8 22.1 89 1.3 CALM 0 0 0 0 1016.3 1016.2 0.0
04/08:30am 23.3 28.0 21.9 92 0.9 CALM 0 6 0 3 1016.3 1016.2 0.0
04/08:00am 23.0 27.7 22.0 94 0.7 CALM 0 0 0 0 1016.0 1015.9 0.0
04/07:30am 22.7 27.3 21.7 94 0.7 CALM 0 0 0 0 1015.5 1015.4 0.0
04/07:00am 22.1 25.6 21.1 94 0.7 NE 4 7 2 4 1015.2 1015.1 0.0
04/06:30am 22.1 26.4 21.1 94 0.7 CALM 0 0 0 0 1014.9 1014.8 0.0
04/06:00am 21.7 25.7 20.5 93 0.8 CALM 0 0 0 0 1014.3 1014.2 0.0
04/05:30am 21.8 25.9 20.8 94 0.6 CALM 0 0 0 0 1013.8 1013.7 0.0
04/05:00am 21.5 25.4 20.3 93 0.8 CALM 0 0 0 0 1013.4 1013.3 0.0
04/04:30am 21.9 26.1 20.9 94 0.7 CALM 0 0 0 0 1013.2 1013.1 0.0
04/04:00am 21.6 25.5 20.4 93 0.8 CALM 0 0 0 0 1013.0 1012.9 0.0
04/03:30am 21.7 25.7 20.5 93 0.8 CALM 0 0 0 0 1013.0 1012.9 0.0
04/03:00am 21.9 24.8 20.7 93 0.8 N 6 7 3 4 1012.9 1012.8 0.0
04/02:30am 21.7 24.8 20.3 92 0.9 NE 4 9 2 5 1012.7 1012.6 0.0
04/02:00am 22.1 25.4 20.7 92 0.9 ENE 4 6 2 3 1013.0 1012.9 0.0
04/01:30am 22.6 26.9 21.2 92 0.9 CALM 0 0 0 0 1013.2 1013.1 0.0
04/01:00am 22.9 27.4 21.5 92 0.9 CALM 0 4 0 2 1013.4 1013.3 0.0
04/12:30am 22.8 25.6 21.6 93 0.8 N 9 11 5 6 1013.4 1013.3 0.0
04/12:00am 23.0 27.3 21.1 89 1.2 CALM 0 0 0 0 1013.7 1013.6 0.0
 
Date/Time
EST
Temp
°C
App
Temp
°C
Dew
Point
Rel
Hum
%
Delta-T
°C
Wind Press
QNH
hPa
Press
MSL
hPa
Rain
since 9 am
mm
Dir
 
Spd
km/h
Gust
km/h
Spd
kts
Gust
kts
03/11:30pm 23.4 26.7 21.5 89 1.3 NW 6 7 3 4 1013.8 1013.7 0.0
03/11:00pm 23.8 27.0 21.7 88 1.4 NNW 7 9 4 5 1014.1 1014.0 0.0
03/10:30pm 23.9 27.1 21.6 87 1.5 N 7 9 4 5 1014.0 1013.9 0.0
03/10:00pm 24.0 27.2 21.7 87 1.5 NNW 7 11 4 6 1014.6 1014.5 0.0
03/09:30pm 24.2 28.4 21.7 86 1.7 NW 2 7 1 4 1014.4 1014.3 0.0
03/09:00pm 24.2 27.4 21.7 86 1.7 N 7 9 4 5 1014.4 1014.3 0.0
03/08:30pm 24.2 27.3 21.5 85 1.8 NNE 7 13 4 7 1014.6 1014.5 0.0
03/08:00pm 24.6 28.2 21.3 82 2.2 N 4 7 2 4 1014.4 1014.3 0.0
03/07:30pm 24.9 27.9 21.2 80 2.4 N 7 9 4 5 1014.2 1014.1 0.0
03/07:00pm 24.9 27.7 20.8 78 2.7 NNW 7 9 4 5 1013.8 1013.7 0.0
03/06:30pm 25.1 27.5 20.8 77 2.8 N 9 13 5 7 1013.1 1013.0 0.0
03/06:00pm 25.5 27.7 21.2 77 2.8 N 11 17 6 9 1012.8 1012.7 0.0
03/05:30pm 25.6 28.9 21.9 80 2.5 NNE 7 11 4 6 1012.5 1012.4 0.0
03/05:00pm 26.4 28.9 21.8 76 3.1 NNE 11 17 6 9 1012.1 1012.0 0.0
03/04:30pm 27.7 30.1 21.5 69 4.1 NNE 11 15 6 8 1011.9 1011.8 0.0
03/04:00pm 28.3 29.3 17.8 53 6.7 N 9 13 5 7 1011.5 1011.4 0.0
03/03:30pm 29.1 30.7 19.1 54 6.5 N 9 13 5 7 1011.5 1011.4 0.0
03/03:00pm 28.6 30.0 18.7 55 6.4 N 9 15 5 8 1011.5 1011.4 0.0
03/02:30pm 28.6 29.5 18.4 54 6.5 N 11 17 6 9 1011.7 1011.6 0.0
03/02:00pm 28.5 30.6 19.4 57 5.9 N 7 13 4 7 1011.8 1011.7 0.0

Other Formats:

Comma delimited format used in spreadsheet applications
http://www.bom.gov.au/fwo/IDQ60801/IDQ60801.94370.axf

JavaScript Object Notation format (JSON) in row-major order
http://www.bom.gov.au/fwo/IDQ60801/IDQ60801.94370.json